Denham Springs, LA

1:12 AM CDT on August 29, 2015 (GMT -0500)
Edmonds | | Change Station
CLOSE
Current Station
Personal Weather Station
Location: Denham Springs, LA
Elevation: 75 ft
Nearby Weather Stations

Elev 75 ft 30.58 °N, 90.95 °W | Updated 12 minutes ago

Clear
Clear
69.3 °F
Feels Like 69.3 °F
N
0.0
Wind Variable Wind from South

Today
High -- | Low -- °F
--% Chance of Precip.
Yesterday
High -- | Low -- °F
Precip. -- in
6:38 AM 7:30 PM
Full, 100% visible
Pressure 30.01 in
Visibility 10.0 miles
Clouds Scattered Clouds 6000 ft
Dew Point 69 °F
Humidity 98%
Rainfall 0.00 in
Snow Depth Not available.
UV 0 out of 12
Pollen 7.40 out of 12
Air Quality Not available.
Flu Activity Not available.
METAR KBTR 290553Z AUTO 00000KT 10SM SCT060 22/20 A3002 RMK AO2 SLP163 T02220200 10300 20222 403280172 51001 TSNO
Pressure 30.01 in
Visibility 10.0 miles
Clouds Scattered Clouds 6000 ft
Dew Point 69 °F
Humidity 98%
Rainfall 0.00 in
Snow Depth Not available.
UV 0 out of 12
Pollen 7.40 out of 12
Air Quality Not available.
Flu Activity Not available.
METAR KBTR 290553Z AUTO 00000KT 10SM SCT060 22/20 A3002 RMK AO2 SLP163 T02220200 10300 20222 403280172 51001 TSNO

10-Day Weather Forecast

×

Almanac

Astronomy

Aug. 29, 2015 Rise Set
Actual Time
Civil Twilight
Nautical Twilight
Astronomical Twilight
Moon
Length of Visible Light
Length of Day
Tomorrow will be .
, % of the Moon is Illuminated

Today's Extremes

State Highs State Lows

Community

WunderPhotos

Upload Photos

1,850,622 photos uploaded!

WunderBlogs® & News

Nearby

Air Quality

  Air Quality AQ Index Pollutant
Not available.

Snow Depth

Station Depth Elevation

Earthquake Activity

City Distance Mag. Time & Date
Minimum magnitude displayed is 2.5.

Coastal Water Temperatures

Place Temperature

Stations

Nearby Weather Stations

Station Location Temp. Windchill Dew Point Humidity Wind Precip. Elev Updated Type